Time;durP1;ratioP1;P1;durP2;ratioP2;P2;SDS_P1;SDS_P2;PMS_P1;PMS_P2;Temp;Humidity;BMP_temperature;BMP_pressure;BME280_temperature;BME280_humidity;BME280_pressure;Samples;Min_cycle;Max_cycle;Signal;HPM_P1;HPM_P2
2023/06/19 00:01:23;;;;;;;9.68;6.97;;;21.70;87.80;;;;;;5017432;28;20056;-79
2023/06/19 00:04:11;;;;;;;7.65;6.75;;;21.60;98.80;;;;;;5020880;28;20180;-80
2023/06/19 00:07:03;;;;;;;10.70;7.25;;;21.70;84.60;;;;;;5000432;28;20049;-81
2023/06/19 00:09:50;;;;;;;7.63;6.80;;;21.70;69.70;;;;;;5009093;28;20042;-82
2023/06/19 00:12:40;;;;;;;10.85;6.90;;;21.80;71.90;;;;;;5012309;28;20454;-80
2023/06/19 00:15:30;;;;;;;9.35;5.97;;;21.70;64.90;;;;;;5005353;28;20049;-81
2023/06/19 00:18:19;;;;;;;11.60;6.68;;;21.70;54.80;;;;;;5021284;28;20049;-79
2023/06/19 00:21:07;;;;;;;9.85;6.72;;;21.70;46.00;;;;;;5004823;28;20466;-80
2023/06/19 00:23:55;;;;;;;8.00;6.63;;;21.70;66.30;;;;;;5011723;28;20070;-82
2023/06/19 00:26:43;;;;;;;8.00;6.20;;;21.70;93.40;;;;;;5017406;28;20046;-81
2023/06/19 00:29:32;;;;;;;7.88;6.65;;;21.60;87.70;;;;;;5012528;28;20050;-82
2023/06/19 00:32:20;;;;;;;8.40;6.07;;;21.60;79.70;;;;;;5013059;28;20125;-80
2023/06/19 00:35:07;;;;;;;7.15;6.00;;;21.60;82.30;;;;;;5004292;28;20046;-81
2023/06/19 00:37:55;;;;;;;7.85;7.05;;;21.60;82.10;;;;;;5017957;28;20625;-81
2023/06/19 00:40:44;;;;;;;13.70;6.47;;;21.50;92.00;;;;;;5016308;28;20147;-82
2023/06/19 00:43:32;;;;;;;7.22;6.53;;;21.30;85.00;;;;;;5014206;28;20462;-79
2023/06/19 00:46:20;;;;;;;11.00;7.38;;;21.30;90.50;;;;;;5020581;28;20042;-79
2023/06/19 00:49:08;;;;;;;9.35;7.05;;;21.20;99.00;;;;;;5012432;28;20044;-79
2023/06/19 00:51:55;;;;;;;11.68;6.72;;;21.20;96.90;;;;;;5016345;28;20110;-79
2023/06/19 00:54:43;;;;;;;12.30;6.97;;;21.20;99.30;;;;;;5017198;28;20037;-82
2023/06/19 00:57:31;;;;;;;9.20;7.35;;;21.20;93.10;;;;;;5014147;28;20057;-82
2023/06/19 01:00:18;;;;;;;11.23;8.07;;;21.30;99.90;;;;;;5007904;28;20053;-82
2023/06/19 01:03:08;;;;;;;7.63;6.78;;;21.30;92.10;;;;;;5007287;28;20069;-80
2023/06/19 01:06:00;;;;;;;9.13;7.22;;;21.40;97.50;;;;;;5013684;28;20042;-81
2023/06/19 01:09:01;;;;;;;7.70;6.63;;;21.50;76.90;;;;;;5014400;28;20042;-82
2023/06/19 01:11:55;;;;;;;10.48;7.20;;;21.50;99.90;;;;;;5008555;28;20091;-79
2023/06/19 01:15:03;;;;;;;12.45;7.30;;;21.50;99.90;;;;;;5014569;28;20049;-80
2023/06/19 01:17:51;;;;;;;8.13;6.40;;;21.30;99.90;;;;;;4993390;28;20498;-82
2023/06/19 01:20:39;;;;;;;26.73;6.47;;;21.10;94.10;;;;;;5017325;28;20128;-84
2023/06/19 01:23:26;;;;;;;9.00;5.95;;;21.10;97.90;;;;;;5015694;28;20057;-81
2023/06/19 01:26:18;;;;;;;9.63;5.72;;;21.10;93.90;;;;;;5014213;28;20630;-81
2023/06/19 01:29:09;;;;;;;5.63;4.68;;;21.00;82.30;;;;;;5009177;28;20383;-81
2023/06/19 01:32:13;;;;;;;10.40;5.55;;;21.00;63.40;;;;;;5007471;28;20050;-84
2023/06/19 01:35:04;;;;;;;11.35;4.82;;;21.00;53.90;;;;;;5013354;28;20046;-82
2023/06/19 01:37:53;;;;;;;7.65;4.82;;;21.00;96.30;;;;;;5004360;28;20045;-81
2023/06/19 01:40:41;;;;;;;6.00;5.18;;;20.90;99.90;;;;;;5010889;28;20120;-83
2023/06/19 01:43:31;;;;;;;6.72;5.40;;;20.80;99.90;;;;;;5017035;28;20136;-84
2023/06/19 01:46:18;;;;;;;5.72;4.70;;;20.80;99.90;;;;;;5000280;28;20045;-83
2023/06/19 01:49:09;;;;;;;7.70;4.60;;;20.70;99.90;;;;;;5001068;28;20046;-80
2023/06/19 01:52:00;;;;;;;6.18;4.72;;;20.60;99.90;;;;;;5010708;28;20077;-82
2023/06/19 01:54:48;;;;;;;4.97;4.38;;;20.50;99.90;;;;;;4999408;28;20037;-80
2023/06/19 01:57:36;;;;;;;6.43;4.70;;;20.50;99.90;;;;;;5001904;28;20053;-81
2023/06/19 02:00:23;;;;;;;8.02;4.45;;;20.50;99.90;;;;;;5004401;28;20081;-80
2023/06/19 02:03:11;;;;;;;5.43;4.70;;;20.50;99.90;;;;;;5013592;28;20045;-80
2023/06/19 02:05:58;;;;;;;4.72;4.22;;;20.50;99.90;;;;;;5018700;28;20108;-83
2023/06/19 02:08:45;;;;;;;7.20;4.63;;;20.50;99.90;;;;;;5020531;28;20053;-92
2023/06/19 02:11:33;;;;;;;4.63;4.07;;;20.40;99.90;;;;;;5023669;28;20034;-94
2023/06/19 02:14:23;;;;;;;5.13;3.95;;;20.30;99.90;;;;;;5016787;28;20551;-92
2023/06/19 02:17:10;;;;;;;6.55;4.15;;;20.30;99.90;;;;;;5022137;28;20045;-92
2023/06/19 02:19:58;;;;;;;5.78;3.83;;;20.30;99.90;;;;;;5008491;28;20053;-93
2023/06/19 02:22:46;;;;;;;4.55;3.97;;;20.30;99.90;;;;;;5019296;28;20060;-93
2023/06/19 02:25:36;;;;;;;4.40;3.63;;;20.30;99.90;;;;;;5037848;28;20049;-93
2023/06/19 02:28:23;;;;;;;5.55;3.75;;;20.20;99.90;;;;;;5037507;28;20041;-93
2023/06/19 02:31:10;;;;;;;4.07;3.67;;;20.20;99.90;;;;;;5019081;28;20049;-93
2023/06/19 02:33:57;;;;;;;4.47;4.03;;;20.20;99.90;;;;;;5016788;28;20360;-91
2023/06/19 02:36:47;;;;;;;4.97;3.78;;;20.20;99.90;;;;;;5032254;28;20042;-92
2023/06/19 02:39:34;;;;;;;5.13;3.75;;;20.20;99.90;;;;;;5010703;28;20061;-92
2023/06/19 02:42:22;;;;;;;6.43;3.83;;;20.20;99.90;;;;;;5027964;28;20132;-91
2023/06/19 02:45:09;;;;;;;5.32;4.32;;;20.20;99.90;;;;;;5022500;28;20041;-91
2023/06/19 02:47:59;;;;;;;4.57;3.92;;;20.20;99.90;;;;;;5004525;28;20042;-90
2023/06/19 02:50:46;;;;;;;4.28;3.88;;;20.10;99.90;;;;;;5024633;28;20096;-91
2023/06/19 02:53:34;;;;;;;7.38;4.00;;;20.10;99.90;;;;;;5015632;28;20045;-91
2023/06/19 02:56:22;;;;;;;4.07;3.55;;;20.10;99.90;;;;;;5022590;28;20053;-88
2023/06/19 02:59:09;;;;;;;5.53;4.03;;;20.10;99.90;;;;;;5024896;28;20045;-92
2023/06/19 03:01:57;;;;;;;6.28;3.97;;;20.10;99.90;;;;;;5018274;28;20053;-92
2023/06/19 03:04:44;;;;;;;4.70;3.70;;;20.00;99.90;;;;;;5020837;28;20050;-92
2023/06/19 03:07:32;;;;;;;4.35;3.90;;;20.00;99.90;;;;;;5009499;28;20045;-93
2023/06/19 03:10:22;;;;;;;5.75;4.40;;;19.90;99.90;;;;;;5020825;28;20046;-92
2023/06/19 03:13:09;;;;;;;4.90;3.90;;;19.80;99.90;;;;;;5023307;28;20058;-89
2023/06/19 03:15:57;;;;;;;5.75;4.10;;;19.80;99.90;;;;;;5018161;28;20046;-93
2023/06/19 03:18:45;;;;;;;4.55;3.97;;;19.70;99.90;;;;;;5020666;28;20049;-92
2023/06/19 03:21:33;;;;;;;5.25;4.20;;;19.70;99.90;;;;;;5018470;28;20056;-92
2023/06/19 03:24:22;;;;;;;9.10;4.50;;;19.70;99.90;;;;;;5024758;28;20383;-91
2023/06/19 03:27:13;;;;;;;4.35;3.90;;;19.70;99.90;;;;;;5014562;28;20050;-90
2023/06/19 03:30:00;;;;;;;8.07;4.13;;;19.70;99.90;;;;;;5022098;28;20054;-89
2023/06/19 03:32:47;;;;;;;5.88;3.92;;;19.60;99.90;;;;;;5020270;28;20041;-93
2023/06/19 03:35:37;;;;;;;7.28;4.25;;;19.60;99.90;;;;;;5009303;28;20546;-92
2023/06/19 03:38:24;;;;;;;6.85;3.65;;;19.70;99.90;;;;;;5005383;28;20056;-91
2023/06/19 03:41:12;;;;;;;7.57;3.95;;;19.70;99.90;;;;;;5006870;28;20470;-93
2023/06/19 03:44:01;;;;;;;4.65;4.03;;;19.80;99.90;;;;;;5020058;28;20052;-91
2023/06/19 03:46:50;;;;;;;5.75;3.70;;;19.70;99.90;;;;;;5027314;28;20041;-93
2023/06/19 03:49:37;;;;;;;4.00;3.58;;;19.60;99.90;;;;;;5021726;28;20061;-93
2023/06/19 03:52:24;;;;;;;4.93;4.05;;;19.60;99.90;;;;;;5029573;28;20042;-92
2023/06/19 03:55:11;;;;;;;4.55;4.07;;;19.60;99.90;;;;;;5019845;28;20056;-90
2023/06/19 03:58:07;;;;;;;4.65;3.83;;;19.60;99.90;;;;;;5021462;28;20096;-90
2023/06/19 04:02:00;;;;;;;;;;;;;;;;;;;;;
2023/06/19 04:05:14;;;;;;;7.90;4.30;;;19.40;99.90;;;;;;5033140;28;20038;-88
2023/06/19 04:08:01;;;;;;;5.97;4.18;;;19.20;99.90;;;;;;5014887;28;20038;-88
2023/06/19 04:10:48;;;;;;;4.85;3.90;;;19.00;99.90;;;;;;5036495;28;20061;-89
2023/06/19 04:13:53;;;;;;;4.75;4.32;;;19.00;99.90;;;;;;5015009;28;20048;-91
2023/06/19 04:17:15;;;;;;;6.05;4.63;;;19.00;99.90;;;;;;5026851;28;20084;-90
2023/06/19 04:20:10;;;;;;;6.43;3.72;;;19.10;99.90;;;;;;5023051;28;20045;-89
2023/06/19 04:22:58;;;;;;;12.00;4.40;;;19.00;99.90;;;;;;5023045;28;20050;-89
2023/06/19 04:25:45;;;;;;;4.43;4.00;;;19.10;99.90;;;;;;5022159;28;20061;-87
2023/06/19 04:28:33;;;;;;;4.38;3.97;;;19.10;99.90;;;;;;5017482;28;20408;-89
2023/06/19 04:31:23;;;;;;;5.80;4.22;;;19.10;99.90;;;;;;5000389;28;20049;-88
2023/06/19 04:34:10;;;;;;;5.78;4.40;;;19.10;99.90;;;;;;5013459;28;20059;-87
2023/06/19 04:36:58;;;;;;;6.28;4.75;;;19.10;99.90;;;;;;5024779;28;20046;-90
2023/06/19 04:39:46;;;;;;;5.13;4.40;;;19.10;99.90;;;;;;5018408;28;20092;-90
2023/06/19 04:42:33;;;;;;;5.47;4.20;;;19.00;99.90;;;;;;5002293;28;20038;-87
2023/06/19 04:45:20;;;;;;;4.55;3.58;;;19.00;99.90;;;;;;5014341;28;20046;-87
2023/06/19 04:48:11;;;;;;;3.80;3.45;;;19.00;99.90;;;;;;5009438;28;20117;-91
2023/06/19 04:51:00;;;;;;;4.20;3.80;;;19.10;99.90;;;;;;5025499;28;20057;-89
2023/06/19 04:53:48;;;;;;;4.85;3.95;;;19.10;99.90;;;;;;5028947;28;20056;-89
2023/06/19 04:56:35;;;;;;;4.53;3.85;;;19.10;99.90;;;;;;5020430;28;20061;-88
2023/06/19 04:59:23;;;;;;;4.70;4.03;;;19.10;99.90;;;;;;5039608;28;20052;-82
2023/06/19 05:02:15;;;;;;;4.28;3.88;;;19.10;99.90;;;;;;5030282;28;20038;-83
2023/06/19 05:10:31;;;;;;;5.60;4.05;;;19.20;99.90;;;;;;5500585;23;20053;-89
2023/06/19 05:13:20;;;;;;;3.58;3.28;;;19.30;99.90;;;;;;5031050;28;20056;-87
2023/06/19 05:16:08;;;;;;;5.88;3.60;;;19.40;99.90;;;;;;5030040;28;20045;-89
2023/06/19 05:18:58;;;;;;;5.82;3.63;;;19.30;99.90;;;;;;5047696;28;20090;-91
2023/06/19 05:21:45;;;;;;;5.25;3.65;;;19.40;99.90;;;;;;5063980;28;20085;-89
2023/06/19 05:24:33;;;;;;;4.88;3.92;;;19.50;99.90;;;;;;5034756;28;20042;-88
2023/06/19 05:27:20;;;;;;;6.18;3.47;;;19.60;99.90;;;;;;5036883;28;20446;-90
2023/06/19 05:30:12;;;;;;;3.92;3.40;;;19.70;99.90;;;;;;5035155;28;20057;-88
2023/06/19 05:33:04;;;;;;;5.25;3.17;;;19.80;99.90;;;;;;5038234;28;20437;-89
2023/06/19 05:35:53;;;;;;;3.63;3.10;;;19.80;99.90;;;;;;5036613;28;20366;-88
2023/06/19 05:38:50;;;;;;;4.65;3.00;;;19.80;99.90;;;;;;5028104;28;20136;-89
2023/06/19 05:41:37;;;;;;;3.25;2.90;;;19.80;99.90;;;;;;5027034;28;20049;-88
2023/06/19 05:44:26;;;;;;;3.75;3.30;;;19.80;99.90;;;;;;5036164;28;20049;-86
2023/06/19 05:47:16;;;;;;;3.70;3.40;;;19.80;99.90;;;;;;5034282;28;20045;-92
2023/06/19 05:50:12;;;;;;;4.47;3.28;;;19.80;99.90;;;;;;5039108;28;20052;-92
2023/06/19 05:53:04;;;;;;;3.65;3.30;;;19.90;99.90;;;;;;5043745;28;20041;-88
2023/06/19 05:56:50;;;;;;;;;;;;;;;;;;;;;
2023/06/19 06:04:14;;;;;;;3.90;3.03;;;20.20;99.90;;;;;;4970708;28;20142;-86
2023/06/19 06:07:05;;;;;;;3.50;3.20;;;20.30;99.90;;;;;;4970217;28;20049;-88
2023/06/19 06:09:52;;;;;;;3.85;3.33;;;20.40;99.90;;;;;;4967305;28;20157;-86
2023/06/19 06:12:40;;;;;;;6.18;3.25;;;20.40;99.90;;;;;;5001963;28;20124;-86
2023/06/19 06:15:36;;;;;;;3.83;3.00;;;20.50;99.90;;;;;;5041879;28;20159;-88
2023/06/19 06:19:06;;;;;;;7.88;3.58;;;20.60;99.90;;;;;;5042231;28;21212;-90
2023/06/19 06:22:25;;;;;;;7.82;3.25;;;20.70;99.90;;;;;;4978090;28;20068;-88
2023/06/19 06:25:15;;;;;;;5.15;2.83;;;20.90;99.90;;;;;;5032099;28;20052;-85
2023/06/19 06:28:05;;;;;;;4.03;3.20;;;21.00;99.90;;;;;;5039153;28;20084;-89
2023/06/19 06:30:52;;;;;;;3.97;2.92;;;21.10;99.90;;;;;;5035776;28;20053;-89
2023/06/19 06:33:58;;;;;;;4.70;3.28;;;21.00;99.90;;;;;;5036944;28;20090;-91
2023/06/19 06:36:53;;;;;;;4.43;3.40;;;20.70;99.90;;;;;;5050342;28;20040;-90
2023/06/19 06:39:52;;;;;;;3.95;3.38;;;20.50;99.90;;;;;;5040798;28;20098;-89
2023/06/19 06:42:49;;;;;;;4.13;3.47;;;20.70;99.90;;;;;;5035451;28;20042;-89
2023/06/19 06:45:43;;;;;;;3.83;3.35;;;20.90;99.90;;;;;;5034377;28;20044;-89
2023/06/19 06:48:43;;;;;;;3.85;3.10;;;21.30;99.90;;;;;;5034674;28;20164;-91
2023/06/19 06:51:55;;;;;;;3.97;3.10;;;21.60;99.90;;;;;;5054489;28;20067;-89
2023/06/19 06:54:45;;;;;;;3.22;2.92;;;21.80;99.90;;;;;;5035482;28;20133;-89
2023/06/19 06:57:35;;;;;;;5.32;2.80;;;21.90;99.90;;;;;;5037142;28;20048;-87
2023/06/19 07:00:23;;;;;;;3.22;2.92;;;21.80;99.90;;;;;;5035325;28;20048;-87
2023/06/19 07:03:13;;;;;;;3.40;2.72;;;21.90;99.90;;;;;;5052565;28;20072;-86
2023/06/19 07:06:08;;;;;;;3.28;2.97;;;22.20;99.90;;;;;;5033709;28;20481;-86
2023/06/19 07:08:56;;;;;;;3.40;2.72;;;22.50;99.90;;;;;;5052023;28;20446;-89
2023/06/19 07:11:45;;;;;;;3.83;2.80;;;22.60;99.90;;;;;;5046078;28;20053;-87
2023/06/19 07:14:33;;;;;;;3.15;2.53;;;22.50;99.90;;;;;;5037170;28;21146;-90
2023/06/19 07:17:23;;;;;;;3.10;2.30;;;22.60;99.90;;;;;;5037758;28;20045;-87
2023/06/19 07:20:11;;;;;;;3.17;2.83;;;22.50;99.90;;;;;;5047341;28;20131;-87
2023/06/19 07:23:00;;;;;;;4.00;2.97;;;22.50;99.90;;;;;;5035231;28;20045;-87
2023/06/19 07:25:47;;;;;;;4.85;2.72;;;22.60;99.90;;;;;;5047220;28;20405;-87
2023/06/19 07:28:36;;;;;;;5.60;2.95;;;22.80;99.90;;;;;;5052090;28;20041;-88
2023/06/19 07:31:28;;;;;;;7.00;3.30;;;23.30;99.90;;;;;;5039073;28;20142;-86
2023/06/19 07:34:15;;;;;;;3.25;2.78;;;23.80;99.90;;;;;;5039280;28;20037;-88
2023/06/19 07:37:03;;;;;;;8.55;3.58;;;23.80;99.90;;;;;;5046990;28;20109;-86
2023/06/19 07:39:51;;;;;;;4.55;3.22;;;24.10;99.90;;;;;;5050959;28;20059;-87
2023/06/19 07:42:42;;;;;;;3.63;3.33;;;23.80;99.90;;;;;;5051282;28;20041;-89
2023/06/19 07:45:31;;;;;;;3.80;3.40;;;23.40;99.90;;;;;;5066095;28;20052;-88
2023/06/19 07:48:18;;;;;;;3.50;3.20;;;23.20;99.90;;;;;;5044912;28;20048;-88
2023/06/19 07:51:08;;;;;;;4.00;3.60;;;23.00;99.90;;;;;;5037181;28;20060;-87
2023/06/19 07:53:55;;;;;;;5.18;3.60;;;22.80;99.90;;;;;;5033994;28;20106;-86
2023/06/19 07:56:47;;;;;;;3.83;3.08;;;22.80;99.90;;;;;;5049762;28;20360;-91
2023/06/19 08:16:44;;;;;;;;;;;;;;;;;;;;;
2023/06/19 08:24:05;;;;;;;3.28;2.97;;;24.40;85.20;;;;;;4919302;29;20059;-94
2023/06/19 08:27:06;;;;;;;3.42;2.95;;;25.00;99.90;;;;;;4980655;28;20138;-89
2023/06/19 08:29:56;;;;;;;4.32;3.00;;;25.40;95.90;;;;;;5026845;28;20047;-88
2023/06/19 08:32:51;;;;;;;2.45;2.25;;;26.10;79.50;;;;;;5038761;28;20052;-89
2023/06/19 08:35:43;;;;;;;5.35;3.10;;;26.60;53.20;;;;;;5048168;28;20041;-91
2023/06/19 08:38:38;;;;;;;5.60;2.60;;;26.90;38.00;;;;;;5046868;28;20059;-90
2023/06/19 08:41:27;;;;;;;3.53;2.20;;;28.00;25.00;;;;;;5049429;28;20049;-88
2023/06/19 08:44:17;;;;;;;3.40;2.30;;;28.00;21.70;;;;;;5039360;28;20045;-88
2023/06/19 08:47:06;;;;;;;2.50;2.30;;;27.90;28.30;;;;;;5038864;28;20053;-88
2023/06/19 08:50:02;;;;;;;2.67;1.75;;;27.70;16.00;;;;;;5032262;28;20490;-88
2023/06/19 08:52:54;;;;;;;4.25;2.10;;;27.00;11.30;;;;;;5050651;28;20492;-86
2023/06/19 08:56:02;;;;;;;1.80;1.70;;;26.30;17.00;;;;;;5064631;28;20445;-90
2023/06/19 08:59:32;;;;;;;2.67;1.92;;;25.90;23.80;;;;;;4969708;28;20046;-87
2023/06/19 09:02:22;;;;;;;3.05;2.45;;;25.40;29.20;;;;;;4975239;28;20066;-89
2023/06/19 09:05:17;;;;;;;2.97;2.70;;;25.10;52.40;;;;;;5034054;28;20048;-90
2023/06/19 09:08:16;;;;;;;2.47;2.28;;;24.80;11.30;;;;;;5066083;28;20111;-87
2023/06/19 09:11:41;;;;;;;;;;;;;;;;;;;;;
2023/06/19 09:14:59;;;;;;;4.82;3.85;;;24.50;32.80;;;;;;5071872;28;20071;-86
2023/06/19 09:17:59;;;;;;;4.97;2.58;;;24.30;44.30;;;;;;5066726;28;20147;-90
2023/06/19 09:21:19;;;;;;;5.35;3.40;;;24.10;38.30;;;;;;5048081;28;20053;-86
2023/06/19 09:24:09;;;;;;;5.93;5.15;;;24.10;56.70;;;;;;5056558;28;20079;-89
2023/06/19 09:27:36;;;;;;;4.43;3.65;;;24.50;53.50;;;;;;5061153;28;20099;-90
2023/06/19 09:30:37;;;;;;;2.90;2.70;;;24.80;50.90;;;;;;5053866;28;20049;-90
2023/06/19 09:33:31;;;;;;;4.05;2.45;;;25.40;22.00;;;;;;5060701;28;20115;-90
2023/06/19 09:36:26;;;;;;;3.35;2.28;;;26.70;22.30;;;;;;5059353;28;20119;-89
2023/06/19 09:39:16;;;;;;;3.42;2.50;;;27.90;21.70;;;;;;5033364;28;20382;-89
2023/06/19 09:42:10;;;;;;;5.78;2.40;;;28.40;23.10;;;;;;5053576;28;20041;-89
2023/06/19 09:45:18;;;;;;;2.25;1.88;;;28.90;6.70;;;;;;5032917;28;20048;-88
2023/06/19 09:48:12;;;;;;;2.45;2.25;;;29.80;13.30;;;;;;5036688;28;20053;-90
2023/06/19 09:51:46;;;;;;;4.60;1.92;;;30.60;12.10;;;;;;5035150;28;20083;-90
2023/06/19 09:54:35;;;;;;;2.05;1.85;;;30.20;5.00;;;;;;5058577;28;20041;-90
2023/06/19 09:57:24;;;;;;;2.88;1.75;;;31.70;1.00;;;;;;5039787;28;20056;-91
2023/06/19 10:00:15;;;;;;;1.75;1.65;;;32.10;10.80;;;;;;5040186;28;20102;-88
2023/06/19 10:03:05;;;;;;;2.10;1.90;;;33.30;50.70;;;;;;5050314;28;20060;-87
2023/06/19 10:06:06;;;;;;;2.10;1.95;;;33.50;1.00;;;;;;5048109;28;20041;-90
2023/06/19 10:08:53;;;;;;;1.70;1.60;;;33.80;61.80;;;;;;5040341;28;20477;-90
2023/06/19 10:11:51;;;;;;;3.10;1.90;;;32.30;51.10;;;;;;5044251;28;20045;-92
2023/06/19 10:14:54;;;;;;;1.98;1.88;;;32.10;42.60;;;;;;5052968;28;20069;-88
2023/06/19 10:17:47;;;;;;;2.15;1.85;;;33.00;29.90;;;;;;5039580;28;20045;-89
2023/06/19 10:20:38;;;;;;;2.10;2.00;;;32.30;31.10;;;;;;5052175;28;20041;-87
2023/06/19 10:23:39;;;;;;;3.72;1.90;;;32.10;36.10;;;;;;5048394;28;20127;-88
2023/06/19 10:26:57;;;;;;;2.13;1.70;;;31.90;43.20;;;;;;5032078;28;20045;-87
2023/06/19 10:29:46;;;;;;;1.70;1.60;;;31.60;42.70;;;;;;5034641;28;20087;-87
2023/06/19 10:32:49;;;;;;;2.05;1.80;;;31.00;45.80;;;;;;5048698;28;20044;-89
2023/06/19 10:35:42;;;;;;;1.98;1.88;;;30.40;19.20;;;;;;5046751;28;20147;-87
2023/06/19 10:38:31;;;;;;;2.35;1.83;;;30.90;33.00;;;;;;5049896;28;20132;-89
2023/06/19 10:41:22;;;;;;;2.20;2.00;;;31.70;49.70;;;;;;5036761;28;20044;-90
2023/06/19 10:44:14;;;;;;;1.98;1.77;;;32.30;36.50;;;;;;5044077;28;20040;-90
2023/06/19 10:47:07;;;;;;;2.10;1.75;;;33.20;44.00;;;;;;5032646;28;20049;-87
2023/06/19 10:49:54;;;;;;;1.77;1.67;;;32.90;49.90;;;;;;5031264;28;20478;-89
2023/06/19 10:52:43;;;;;;;1.77;1.63;;;32.70;95.30;;;;;;5030012;28;20041;-87
2023/06/19 10:55:31;;;;;;;1.92;1.83;;;32.50;22.80;;;;;;5027998;28;20045;-85
2023/06/19 10:58:25;;;;;;;2.27;2.10;;;31.70;18.40;;;;;;5048588;28;20075;-88
2023/06/19 11:01:13;;;;;;;2.30;1.90;;;30.80;29.40;;;;;;5039101;28;20045;-89
2023/06/19 11:04:05;;;;;;;2.65;2.00;;;31.00;34.50;;;;;;5039855;28;20057;-88
2023/06/19 11:06:52;;;;;;;2.60;2.15;;;31.20;15.60;;;;;;5034116;28;20125;-88
2023/06/19 11:09:39;;;;;;;6.07;2.45;;;31.50;38.70;;;;;;5050618;28;20049;-87
2023/06/19 11:12:32;;;;;;;2.90;2.33;;;31.50;35.20;;;;;;5049438;28;20052;-90
2023/06/19 11:15:20;;;;;;;2.40;2.17;;;32.70;35.50;;;;;;5036978;28;20040;-91
2023/06/19 11:18:12;;;;;;;2.50;2.30;;;33.90;27.30;;;;;;5051515;28;20064;-87
2023/06/19 11:21:02;;;;;;;3.88;2.10;;;32.80;29.30;;;;;;5053195;28;20071;-88
2023/06/19 11:23:54;;;;;;;1.77;1.67;;;32.10;31.30;;;;;;5045142;28;20429;-87
2023/06/19 11:26:44;;;;;;;;;;;31.90;25.20;;;;;;5040427;28;20067;-89
2023/06/19 11:29:33;;;;;;;5.90;2.05;;;31.50;25.50;;;;;;5058966;28;19927;-88
2023/06/19 11:32:31;;;;;;;3.97;2.05;;;31.00;30.20;;;;;;5046394;28;20041;-87
2023/06/19 11:35:19;;;;;;;2.10;2.00;;;30.20;41.00;;;;;;5044782;28;20111;-87
2023/06/19 11:38:08;;;;;;;4.25;2.05;;;30.00;80.90;;;;;;5056663;28;20462;-88
2023/06/19 11:45:37;;;;;;;2.60;2.28;;;29.30;41.70;;;;;;5048949;28;20037;-85
2023/06/19 11:48:25;;;;;;;4.22;2.78;;;29.00;39.20;;;;;;5051949;28;20052;-85
2023/06/19 11:55:32;;;;;;;2.70;2.50;;;28.60;45.50;;;;;;5049694;28;20071;-87
2023/06/19 11:59:30;;;;;;;5.07;2.30;;;29.30;54.50;;;;;;5046955;28;20052;-85
2023/06/19 12:03:04;;;;;;;5.78;2.42;;;30.30;61.20;;;;;;5038960;28;20509;-84
2023/06/19 12:07:04;;;;;;;5.75;2.60;;;32.30;54.70;;;;;;5051210;28;20055;-87
2023/06/19 12:10:55;;;;;;;;;;;;;;;;;;;;;
2023/06/19 12:14:19;;;;;;;;;;;;;;;;;;;;;
2023/06/19 12:18:12;;;;;;;4.45;2.17;;;35.60;45.60;;;;;;4986275;28;20034;-86
2023/06/19 12:21:29;;;;;;;4.68;2.00;;;37.60;67.90;;;;;;4976024;28;20096;-88
2023/06/19 12:24:37;;;;;;;4.63;2.17;;;38.90;67.00;;;;;;4949720;28;20047;-88
2023/06/19 12:32:21;;;;;;;1.95;1.85;;;36.90;99.90;;;;;;4991688;28;20120;-86
2023/06/19 12:35:39;;;;;;;2.05;1.95;;;35.80;99.90;;;;;;4937842;29;20051;-86
2023/06/19 12:47:40;;;;;;;2.40;2.20;;;34.90;99.90;;;;;;4878012;29;20497;-87
2023/06/19 12:54:17;;;;;;;2.63;2.13;;;37.50;99.90;;;;;;4909699;29;20134;-86
2023/06/19 12:57:05;;;;;;;1.73;1.63;;;38.00;99.90;;;;;;4910126;29;20064;-87
2023/06/19 12:59:52;;;;;;;3.92;1.90;;;38.00;99.90;;;;;;4937937;29;20043;-88
2023/06/19 13:02:43;;;;;;;1.88;1.77;;;38.40;99.90;;;;;;4933067;29;20040;-89
2023/06/19 13:05:30;;;;;;;2.08;1.98;;;38.90;99.90;;;;;;4930083;29;20087;-90
2023/06/19 13:08:17;;;;;;;2.70;1.65;;;39.00;99.90;;;;;;4933365;28;20047;-87
2023/06/19 13:11:07;;;;;;;1.73;1.63;;;39.00;99.90;;;;;;4934826;29;20082;-89
2023/06/19 13:13:56;;;;;;;4.50;1.90;;;39.40;99.90;;;;;;4951787;28;20062;-87
2023/06/19 13:16:46;;;;;;;2.33;2.13;;;38.10;99.90;;;;;;4926104;29;20123;-90
2023/06/19 13:19:34;;;;;;;2.42;2.22;;;37.50;99.90;;;;;;4936751;29;20362;-91
2023/06/19 13:22:35;;;;;;;3.00;2.10;;;36.40;99.90;;;;;;4954271;28;20077;-89
2023/06/19 13:25:23;;;;;;;5.20;2.30;;;36.10;99.90;;;;;;5050627;28;20072;-89
2023/06/19 13:28:10;;;;;;;3.10;2.40;;;36.10;99.90;;;;;;5052001;28;20422;-86
2023/06/19 13:31:01;;;;;;;2.17;1.92;;;34.60;90.30;;;;;;5036670;28;20171;-88
2023/06/19 13:33:48;;;;;;;3.38;2.13;;;34.50;99.90;;;;;;5045339;28;20056;-86
2023/06/19 13:36:35;;;;;;;5.32;2.28;;;35.10;91.60;;;;;;5051089;28;20487;-86
2023/06/19 13:39:23;;;;;;;2.72;2.40;;;36.40;85.60;;;;;;5047971;28;20351;-86
2023/06/19 13:42:12;;;;;;;2.42;2.20;;;36.60;99.90;;;;;;5046966;28;20087;-88
2023/06/19 13:45:00;;;;;;;2.00;1.90;;;36.10;99.90;;;;;;5047844;28;20049;-85
2023/06/19 13:47:49;;;;;;;6.05;2.13;;;35.20;99.90;;;;;;5049725;28;20466;-89
2023/06/19 13:50:37;;;;;;;2.05;1.90;;;35.50;99.90;;;;;;5051414;28;20377;-87
2023/06/19 13:53:29;;;;;;;4.15;2.10;;;35.90;99.90;;;;;;5052311;28;20049;-88
2023/06/19 13:56:17;;;;;;;8.57;2.10;;;36.10;99.90;;;;;;5028857;28;20046;-91
2023/06/19 13:59:05;;;;;;;2.33;2.13;;;36.20;99.90;;;;;;5030501;28;20045;-90
2023/06/19 14:01:53;;;;;;;2.00;1.90;;;36.60;99.90;;;;;;5046800;28;20042;-92
2023/06/19 14:04:40;;;;;;;4.95;2.60;;;36.80;99.90;;;;;;5060958;28;20052;-89
2023/06/19 14:07:28;;;;;;;4.20;2.30;;;36.40;99.90;;;;;;5034664;28;20056;-88
2023/06/19 14:10:15;;;;;;;2.58;2.30;;;35.90;99.90;;;;;;5051331;28;20048;-86
2023/06/19 14:13:03;;;;;;;3.28;2.20;;;35.10;99.90;;;;;;5055146;28;20041;-84
2023/06/19 14:15:51;;;;;;;2.88;2.22;;;35.30;99.90;;;;;;5045548;28;20099;-88
2023/06/19 14:18:38;;;;;;;2.20;2.08;;;35.00;99.90;;;;;;5048764;28;20446;-86
2023/06/19 14:21:26;;;;;;;3.50;2.38;;;34.10;99.90;;;;;;5058958;28;20041;-88
2023/06/19 14:24:14;;;;;;;2.55;2.35;;;34.10;99.90;;;;;;5066515;28;20041;-86
2023/06/19 14:27:01;;;;;;;2.85;2.40;;;34.50;99.90;;;;;;5048780;28;20080;-88
2023/06/19 14:29:50;;;;;;;3.65;2.28;;;33.90;99.90;;;;;;5060440;28;20123;-89
2023/06/19 14:32:38;;;;;;;2.40;2.20;;;33.80;99.90;;;;;;5045630;28;20037;-87
2023/06/19 14:35:25;;;;;;;3.05;1.98;;;33.80;99.90;;;;;;5064680;28;20056;-89
2023/06/19 14:38:15;;;;;;;4.10;2.47;;;33.80;99.90;;;;;;5053160;28;20465;-92
2023/06/19 14:41:05;;;;;;;3.85;2.42;;;33.50;99.90;;;;;;5032627;28;20387;-92
2023/06/19 14:43:53;;;;;;;4.13;2.75;;;33.40;99.90;;;;;;5055716;28;20041;-88
2023/06/19 14:46:40;;;;;;;2.50;2.30;;;32.80;99.90;;;;;;5052466;28;20068;-91
2023/06/19 14:49:28;;;;;;;2.42;2.22;;;33.40;99.90;;;;;;5054352;28;20466;-90
2023/06/19 14:52:18;;;;;;;4.30;2.58;;;34.50;99.90;;;;;;5041398;28;20036;-88
2023/06/19 14:55:06;;;;;;;2.53;2.30;;;34.70;99.90;;;;;;5064722;28;20053;-91
2023/06/19 14:57:53;;;;;;;2.90;2.70;;;34.30;99.90;;;;;;5056279;28;20048;-89
2023/06/19 15:00:41;;;;;;;3.42;2.15;;;34.60;99.90;;;;;;5039706;28;20465;-87
2023/06/19 15:03:29;;;;;;;2.95;2.40;;;35.80;99.90;;;;;;5053085;28;20349;-90
2023/06/19 15:06:16;;;;;;;2.53;2.33;;;36.40;99.90;;;;;;5065071;28;20041;-86
2023/06/19 15:09:04;;;;;;;2.95;2.13;;;36.40;99.90;;;;;;5064687;28;20060;-92
2023/06/19 15:11:51;;;;;;;2.67;2.30;;;35.80;99.30;;;;;;5063442;28;20042;-89
2023/06/19 15:14:43;;;;;;;3.88;2.53;;;35.00;99.90;;;;;;5066064;28;20060;-87
2023/06/19 15:17:30;;;;;;;4.22;2.65;;;33.50;99.90;;;;;;5081554;28;20048;-84
2023/06/19 15:20:20;;;;;;;2.95;2.65;;;33.10;99.90;;;;;;5067935;28;20041;-83
2023/06/19 15:23:08;;;;;;;4.63;2.22;;;32.90;99.90;;;;;;5060197;28;20413;-86
2023/06/19 15:25:55;;;;;;;4.28;2.58;;;32.70;99.90;;;;;;5056751;28;20052;-88
2023/06/19 15:28:47;;;;;;;2.92;2.70;;;32.70;99.90;;;;;;5067998;28;20047;-88
2023/06/19 15:31:35;;;;;;;6.28;2.70;;;32.90;99.90;;;;;;5055238;28;20056;-89
2023/06/19 15:34:23;;;;;;;2.90;2.70;;;32.90;99.90;;;;;;5039127;28;20041;-91
2023/06/19 15:37:11;;;;;;;3.35;3.05;;;32.00;99.90;;;;;;5050219;28;20054;-89
2023/06/19 15:39:59;;;;;;;3.35;2.90;;;31.40;99.90;;;;;;5062258;28;20045;-89
2023/06/19 15:42:47;;;;;;;3.63;3.33;;;31.00;99.90;;;;;;5049140;28;20045;-90
2023/06/19 15:45:36;;;;;;;3.58;2.70;;;31.40;99.90;;;;;;5055779;28;20053;-88
2023/06/19 15:48:27;;;;;;;3.58;3.20;;;32.00;99.90;;;;;;5054356;28;20041;-89
2023/06/19 15:51:22;;;;;;;4.20;3.20;;;32.80;99.90;;;;;;5052444;28;20052;-92
2023/06/19 15:54:09;;;;;;;4.40;3.63;;;32.70;99.90;;;;;;5051444;28;20131;-88
2023/06/19 15:56:57;;;;;;;3.75;3.35;;;32.00;99.90;;;;;;5037002;28;20098;-91
2023/06/19 15:59:47;;;;;;;4.45;3.40;;;31.50;99.90;;;;;;5055674;28;20057;-88
2023/06/19 16:02:37;;;;;;;3.38;3.08;;;31.10;99.90;;;;;;5040030;28;20120;-88
2023/06/19 16:05:25;;;;;;;4.95;3.03;;;30.70;99.90;;;;;;5054598;28;20045;-89